Time;durP1;ratioP1;P1;durP2;ratioP2;P2;SDS_P1;SDS_P2;PMS_P1;PMS_P2;Temp;Humidity;BMP_temperature;BMP_pressure;BME280_temperature;BME280_humidity;BME280_pressure;Samples;Min_cycle;Max_cycle;Signal;HPM_P1;HPM_P2
2023/03/28 00:00:10;;;;;;;67.28;49.67;;;13.40;67.50;;;;;;4969353;28;90583;-78
2023/03/28 00:02:36;;;;;;;66.57;49.28;;;13.40;67.50;;;;;;4974686;28;90005;-77
2023/03/28 00:05:03;;;;;;;67.45;49.60;;;13.40;67.60;;;;;;4981143;28;90280;-77
2023/03/28 00:07:29;;;;;;;67.80;49.70;;;13.40;67.30;;;;;;4952730;28;94425;-77
2023/03/28 00:09:56;;;;;;;66.45;49.25;;;13.40;67.30;;;;;;4949877;28;91230;-73
2023/03/28 00:12:22;;;;;;;67.40;49.63;;;13.40;67.30;;;;;;4935199;28;90117;-74
2023/03/28 00:14:48;;;;;;;64.93;48.85;;;13.40;67.50;;;;;;4957411;28;90576;-74
2023/03/28 00:17:16;;;;;;;67.05;49.60;;;13.50;67.20;;;;;;4965784;28;89409;-73
2023/03/28 00:19:45;;;;;;;65.35;49.65;;;13.40;67.20;;;;;;4980931;28;89107;-79
2023/03/28 00:22:11;;;;;;;66.28;49.33;;;13.40;67.30;;;;;;4965944;28;91304;-74
2023/03/28 00:24:37;;;;;;;65.10;49.10;;;13.40;67.10;;;;;;4984988;28;89459;-76
2023/03/28 00:27:04;;;;;;;66.72;49.70;;;13.30;67.00;;;;;;4963502;28;89847;-78
2023/03/28 00:29:30;;;;;;;64.97;49.00;;;13.30;67.50;;;;;;4977044;28;95830;-77
2023/03/28 00:31:56;;;;;;;66.20;48.97;;;13.30;67.10;;;;;;4975985;28;89055;-77
2023/03/28 00:34:22;;;;;;;66.10;49.42;;;13.30;67.30;;;;;;4964592;28;93825;-79
2023/03/28 00:36:49;;;;;;;66.85;49.25;;;13.30;67.20;;;;;;4991354;28;89427;-77
2023/03/28 00:39:15;;;;;;;64.95;48.85;;;13.30;67.20;;;;;;4977414;28;90034;-74
2023/03/28 00:41:43;;;;;;;67.55;49.28;;;13.30;67.00;;;;;;4973077;28;91902;-77
2023/03/28 00:44:45;;;;;;;64.78;48.90;;;13.30;67.30;;;;;;4973831;28;90303;-75
2023/03/28 00:47:10;;;;;;;;;;;13.20;67.40;;;;;;4974596;28;89054;-78
2023/03/28 00:49:36;;;;;;;64.68;48.95;;;13.20;67.30;;;;;;4984833;28;90146;-77
2023/03/28 00:52:05;;;;;;;65.85;48.72;;;13.20;67.50;;;;;;4980302;28;89392;-78
2023/03/28 00:54:34;;;;;;;64.30;48.83;;;13.10;67.30;;;;;;4982381;28;89048;-77
2023/03/28 00:57:01;;;;;;;65.28;48.63;;;13.10;67.20;;;;;;4982337;28;90404;-78
2023/03/28 00:59:31;;;;;;;63.53;48.85;;;13.10;67.50;;;;;;4976448;28;89124;-77
2023/03/28 01:01:57;;;;;;;66.18;49.00;;;13.10;67.50;;;;;;4970800;28;89249;-77
2023/03/28 01:04:26;;;;;;;67.55;49.10;;;13.00;67.30;;;;;;4976991;28;91397;-73
2023/03/28 01:06:55;;;;;;;65.80;49.25;;;13.10;67.30;;;;;;4980929;28;90014;-74
2023/03/28 01:09:27;;;;;;;64.93;48.88;;;13.10;68.20;;;;;;5001892;28;89459;-74
2023/03/28 01:11:56;;;;;;;64.53;49.15;;;13.10;67.20;;;;;;4982258;28;89155;-76
2023/03/28 01:14:25;;;;;;;65.72;48.97;;;13.00;67.10;;;;;;4979501;28;90038;-76
2023/03/28 01:16:51;;;;;;;65.85;48.83;;;13.00;67.10;;;;;;4992760;28;89247;-76
2023/03/28 01:19:46;;;;;;;65.47;49.00;;;13.00;67.40;;;;;;4987836;28;88892;-75
2023/03/28 01:22:29;;;;;;;63.85;48.75;;;13.00;67.10;;;;;;4974908;28;91089;-75
2023/03/28 01:25:02;;;;;;;65.80;49.53;;;13.00;67.10;;;;;;4983610;28;89755;-73
2023/03/28 01:27:31;;;;;;;64.43;49.25;;;13.00;66.90;;;;;;4983033;28;92687;-74
2023/03/28 01:30:23;;;;;;;65.43;49.00;;;13.00;67.00;;;;;;4986525;28;89831;-77
2023/03/28 01:33:10;;;;;;;63.65;48.85;;;13.00;67.20;;;;;;4976388;28;90729;-76
2023/03/28 01:35:57;;;;;;;65.00;48.70;;;13.00;66.90;;;;;;4977050;28;89085;-76
2023/03/28 01:38:59;;;;;;;65.80;48.83;;;13.00;66.80;;;;;;4976807;28;89649;-78
2023/03/28 01:41:41;;;;;;;63.38;48.50;;;12.90;67.00;;;;;;4894960;28;89156;-76
2023/03/28 01:44:29;;;;;;;65.47;48.88;;;12.90;66.80;;;;;;4976990;28;89049;-79
2023/03/28 01:47:26;;;;;;;63.95;48.75;;;12.90;66.90;;;;;;4970838;28;91338;-73
2023/03/28 01:50:26;;;;;;;63.28;48.72;;;12.90;66.80;;;;;;4976599;28;90657;-73
2023/03/28 01:53:13;;;;;;;64.28;48.67;;;12.90;66.60;;;;;;4970050;28;89250;-76
2023/03/28 01:55:47;;;;;;;64.22;48.72;;;12.80;66.50;;;;;;4977398;28;89208;-73
2023/03/28 01:58:17;;;;;;;66.35;49.20;;;12.90;66.60;;;;;;4973525;28;90319;-75
2023/03/28 02:00:48;;;;;;;65.88;49.17;;;12.90;66.60;;;;;;4978394;28;90728;-78
2023/03/28 02:03:21;;;;;;;64.43;48.67;;;12.90;66.80;;;;;;4971182;28;89530;-72
2023/03/28 02:05:48;;;;;;;64.88;48.88;;;12.80;66.70;;;;;;4974879;28;89252;-73
2023/03/28 02:08:16;;;;;;;65.63;48.65;;;12.80;66.50;;;;;;4971317;28;89762;-74
2023/03/28 02:10:43;;;;;;;62.97;48.30;;;12.80;66.70;;;;;;4968997;28;91223;-74
2023/03/28 02:13:19;;;;;;;65.07;49.00;;;12.80;66.70;;;;;;4977478;28;90568;-77
2023/03/28 02:15:49;;;;;;;66.03;48.97;;;12.70;66.70;;;;;;4973235;28;88268;-76
2023/03/28 02:18:19;;;;;;;64.32;48.78;;;12.80;66.70;;;;;;4975184;28;89698;-71
2023/03/28 02:20:52;;;;;;;64.13;48.28;;;12.70;66.50;;;;;;4980445;28;88943;-76
2023/03/28 02:23:24;;;;;;;63.08;48.38;;;12.70;66.50;;;;;;4965983;28;94513;-72
2023/03/28 02:25:50;;;;;;;64.03;48.70;;;12.70;66.30;;;;;;4971945;28;88771;-74
2023/03/28 02:28:18;;;;;;;63.72;48.85;;;12.80;66.50;;;;;;4977317;28;94228;-73
2023/03/28 02:30:44;;;;;;;63.70;49.17;;;12.70;66.50;;;;;;4978554;28;91314;-76
2023/03/28 02:33:39;;;;;;;64.53;48.92;;;12.70;66.50;;;;;;4973051;28;89246;-74
2023/03/28 02:36:13;;;;;;;64.25;48.40;;;12.70;66.30;;;;;;4974417;28;90737;-76
2023/03/28 02:39:00;;;;;;;65.75;49.13;;;12.70;66.30;;;;;;4968272;28;89474;-74
2023/03/28 02:41:47;;;;;;;63.88;48.58;;;12.60;66.30;;;;;;4967689;28;89818;-76
2023/03/28 02:44:31;;;;;;;63.10;49.17;;;12.70;66.20;;;;;;4974727;28;89639;-73
2023/03/28 02:47:17;;;;;;;63.30;48.53;;;12.60;66.30;;;;;;4976877;28;89230;-76
2023/03/28 02:50:07;;;;;;;63.72;49.08;;;12.60;66.30;;;;;;4970713;28;91634;-75
2023/03/28 02:52:39;;;;;;;63.97;48.97;;;12.60;66.30;;;;;;4970179;28;89755;-77
2023/03/28 02:55:16;;;;;;;63.90;49.13;;;12.60;66.30;;;;;;4976409;28;89808;-73
2023/03/28 02:57:52;;;;;;;65.72;48.92;;;12.50;66.10;;;;;;4967026;28;89161;-72
2023/03/28 03:00:19;;;;;;;64.18;49.13;;;12.60;66.40;;;;;;4972576;28;89288;-73
2023/03/28 03:02:49;;;;;;;64.32;49.10;;;12.60;66.00;;;;;;4971862;28;90224;-74
2023/03/28 03:05:15;;;;;;;65.88;48.85;;;12.60;66.10;;;;;;4979156;28;89187;-75
2023/03/28 03:07:41;;;;;;;64.53;48.45;;;12.60;66.20;;;;;;4969444;28;88285;-75
2023/03/28 03:10:10;;;;;;;66.55;49.58;;;12.60;65.90;;;;;;4975663;28;91337;-74
2023/03/28 03:12:35;;;;;;;63.85;49.00;;;12.60;66.00;;;;;;4990002;28;90244;-75
2023/03/28 03:15:03;;;;;;;62.95;48.60;;;12.50;65.80;;;;;;4973058;28;90319;-77
2023/03/28 03:17:29;;;;;;;65.15;48.83;;;12.50;65.90;;;;;;4976967;28;89703;-77
2023/03/28 03:19:55;;;;;;;64.20;48.90;;;12.50;65.90;;;;;;4977701;28;90259;-72
2023/03/28 03:22:21;;;;;;;64.28;49.25;;;12.50;65.80;;;;;;4974238;28;89400;-73
2023/03/28 03:24:49;;;;;;;63.85;48.60;;;12.40;66.00;;;;;;4973669;28;90354;-73
2023/03/28 03:27:19;;;;;;;62.70;48.70;;;12.40;66.10;;;;;;4982892;28;88835;-75
2023/03/28 03:29:47;;;;;;;63.42;48.65;;;12.40;66.10;;;;;;4976307;28;89540;-76
2023/03/28 03:32:13;;;;;;;64.28;49.25;;;12.50;65.90;;;;;;4977886;28;89289;-74
2023/03/28 03:34:40;;;;;;;64.57;49.40;;;12.40;65.90;;;;;;4977806;28;89163;-78
2023/03/28 03:37:08;;;;;;;64.68;48.85;;;12.40;66.10;;;;;;4970799;28;89402;-75
2023/03/28 03:39:35;;;;;;;64.15;49.20;;;12.40;65.90;;;;;;4973585;28;90660;-77
2023/03/28 03:42:01;;;;;;;63.60;48.88;;;12.30;65.90;;;;;;4978081;28;89952;-77
2023/03/28 03:44:27;;;;;;;65.55;49.30;;;12.40;66.10;;;;;;4973841;28;92132;-77
2023/03/28 03:46:52;;;;;;;63.05;48.72;;;12.30;66.10;;;;;;4983127;28;89019;-77
2023/03/28 03:49:18;;;;;;;62.95;48.53;;;12.40;66.00;;;;;;4967164;28;90639;-73
2023/03/28 03:51:44;;;;;;;65.35;49.65;;;12.30;65.90;;;;;;4969982;28;89995;-73
2023/03/28 03:54:10;;;;;;;64.38;49.40;;;12.30;65.90;;;;;;4971306;28;89325;-73
2023/03/28 03:56:36;;;;;;;65.70;49.22;;;12.30;65.80;;;;;;4970408;28;89545;-72
2023/03/28 03:59:02;;;;;;;64.47;49.55;;;12.30;65.80;;;;;;4955991;28;89787;-74
2023/03/28 04:01:28;;;;;;;64.65;48.90;;;12.40;66.60;;;;;;4950556;28;94117;-77
2023/03/28 04:03:55;;;;;;;64.10;48.72;;;12.30;65.70;;;;;;4962408;28;94993;-75
2023/03/28 04:06:21;;;;;;;64.53;49.20;;;12.30;65.10;;;;;;4956154;28;88958;-77
2023/03/28 04:08:47;;;;;;;66.72;48.95;;;12.30;66.10;;;;;;4959108;28;89060;-76
2023/03/28 04:11:12;;;;;;;64.80;48.85;;;12.30;66.10;;;;;;4966103;28;93726;-73
2023/03/28 04:13:38;;;;;;;64.10;49.08;;;12.30;65.90;;;;;;4972003;28;89420;-72
2023/03/28 04:16:04;;;;;;;63.70;48.85;;;12.30;65.90;;;;;;4976836;28;89410;-74
2023/03/28 04:18:30;;;;;;;66.03;49.60;;;12.30;65.80;;;;;;4979510;28;89430;-73
2023/03/28 04:21:00;;;;;;;63.58;49.17;;;12.30;65.90;;;;;;4983946;28;89134;-75
2023/03/28 04:23:26;;;;;;;66.90;49.58;;;12.30;66.10;;;;;;4986082;28;88942;-76
2023/03/28 04:26:00;;;;;;;63.97;48.97;;;12.30;66.70;;;;;;4982679;28;88696;-77
2023/03/28 04:28:26;;;;;;;64.50;49.08;;;12.20;66.00;;;;;;4985367;28;91125;-75
2023/03/28 04:30:59;;;;;;;63.22;48.42;;;12.20;66.20;;;;;;4994914;28;89167;-76
2023/03/28 04:33:26;;;;;;;66.35;49.53;;;12.30;65.90;;;;;;4985103;28;88367;-76
2023/03/28 04:36:00;;;;;;;62.97;49.10;;;12.20;66.10;;;;;;4984370;28;89253;-75
2023/03/28 04:38:27;;;;;;;63.15;48.92;;;12.20;66.00;;;;;;4976472;28;88781;-76
2023/03/28 04:40:56;;;;;;;63.60;48.90;;;12.30;66.70;;;;;;4974990;28;90826;-78
2023/03/28 04:43:29;;;;;;;63.75;48.65;;;12.20;66.10;;;;;;4985935;28;89097;-77
2023/03/28 04:45:55;;;;;;;62.78;48.55;;;12.20;65.90;;;;;;4980314;28;88824;-73
2023/03/28 04:48:22;;;;;;;64.55;48.78;;;12.20;65.90;;;;;;4981333;28;88756;-75
2023/03/28 04:50:48;;;;;;;64.63;48.92;;;12.10;65.90;;;;;;4977716;28;89224;-74
2023/03/28 04:53:14;;;;;;;62.88;48.78;;;12.10;66.10;;;;;;4976899;28;91969;-74
2023/03/28 04:55:42;;;;;;;65.20;48.58;;;12.20;66.10;;;;;;4980241;28;90479;-71
2023/03/28 04:58:09;;;;;;;63.85;48.47;;;12.20;65.80;;;;;;4981264;28;89817;-75
2023/03/28 05:00:35;;;;;;;63.83;48.55;;;12.20;66.10;;;;;;4976776;28;88429;-75
2023/03/28 05:03:05;;;;;;;65.82;48.55;;;12.20;66.00;;;;;;4975840;28;89574;-75
2023/03/28 05:05:31;;;;;;;64.88;48.75;;;12.20;66.10;;;;;;4971797;28;91346;-76
2023/03/28 05:07:59;;;;;;;65.68;49.35;;;12.10;66.20;;;;;;4970310;28;90778;-77
2023/03/28 05:10:25;;;;;;;64.15;48.97;;;12.20;66.10;;;;;;4978246;28;88404;-75
2023/03/28 05:12:51;;;;;;;65.57;49.25;;;12.20;66.20;;;;;;4981997;28;88556;-77
2023/03/28 05:15:16;;;;;;;62.65;48.65;;;12.30;66.00;;;;;;4977619;28;89046;-78
2023/03/28 05:17:42;;;;;;;64.35;49.22;;;12.30;65.80;;;;;;4975553;28;96620;-76
2023/03/28 05:20:09;;;;;;;64.38;49.20;;;12.30;66.00;;;;;;4973230;28;91108;-70
2023/03/28 05:22:36;;;;;;;66.68;49.33;;;12.30;66.10;;;;;;4967127;28;93036;-74
2023/03/28 05:25:03;;;;;;;66.22;48.72;;;12.30;65.90;;;;;;4979958;28;88872;-76
2023/03/28 05:27:28;;;;;;;64.60;48.88;;;12.30;66.10;;;;;;4981494;28;88656;-75
2023/03/28 05:29:55;;;;;;;64.38;49.22;;;12.20;65.90;;;;;;4979650;28;88804;-70
2023/03/28 05:32:40;;;;;;;63.05;48.47;;;12.30;65.90;;;;;;4980221;28;88578;-80
2023/03/28 05:35:08;;;;;;;65.38;48.80;;;12.30;66.20;;;;;;4973285;28;88705;-75
2023/03/28 05:37:35;;;;;;;69.43;49.10;;;12.20;66.80;;;;;;4982072;28;89227;-70
2023/03/28 05:40:05;;;;;;;64.60;48.85;;;12.20;67.00;;;;;;4982239;28;88994;-74
2023/03/28 05:42:31;;;;;;;65.18;49.00;;;12.20;66.70;;;;;;4969835;28;90989;-78
2023/03/28 05:44:57;;;;;;;64.55;48.60;;;12.10;66.90;;;;;;4980611;28;88894;-76
2023/03/28 05:47:22;;;;;;;70.75;49.50;;;12.20;66.50;;;;;;4974437;28;91693;-76
2023/03/28 05:49:48;;;;;;;68.78;49.03;;;12.20;65.90;;;;;;4980414;28;89282;-73
2023/03/28 05:52:14;;;;;;;65.90;49.00;;;12.20;65.60;;;;;;4980920;28;88791;-74
2023/03/28 05:54:40;;;;;;;67.50;48.72;;;12.20;65.60;;;;;;4987027;28;89116;-75
2023/03/28 05:57:05;;;;;;;66.78;48.67;;;12.30;65.70;;;;;;4978872;28;90407;-75
2023/03/28 05:59:31;;;;;;;64.63;49.08;;;12.30;65.30;;;;;;4982591;28;88030;-79
2023/03/28 06:01:57;;;;;;;65.10;48.90;;;12.30;65.30;;;;;;4979329;28;90734;-73
2023/03/28 06:04:24;;;;;;;67.35;48.92;;;12.30;65.30;;;;;;4984662;28;88771;-72
2023/03/28 06:06:50;;;;;;;67.28;49.05;;;12.30;65.40;;;;;;4974171;28;92264;-79
2023/03/28 06:09:17;;;;;;;64.22;48.75;;;12.20;65.30;;;;;;4978369;28;89576;-78
2023/03/28 06:11:43;;;;;;;65.38;49.35;;;12.20;65.30;;;;;;4975359;28;89339;-75
2023/03/28 06:14:10;;;;;;;65.00;49.35;;;12.30;65.30;;;;;;4977914;28;89384;-76
2023/03/28 06:16:36;;;;;;;66.47;48.45;;;12.30;65.20;;;;;;4973789;28;88527;-72
2023/03/28 06:19:03;;;;;;;63.63;48.25;;;12.30;65.10;;;;;;4977375;28;88332;-78
2023/03/28 06:21:29;;;;;;;64.78;48.60;;;12.30;65.00;;;;;;4977773;28;88835;-73
2023/03/28 06:23:54;;;;;;;63.85;48.42;;;12.30;64.90;;;;;;4977359;28;88438;-76
2023/03/28 06:26:20;;;;;;;63.33;48.53;;;12.30;64.90;;;;;;4982347;28;88634;-79
2023/03/28 06:28:46;;;;;;;66.93;48.95;;;12.30;64.80;;;;;;4981590;28;89266;-71
2023/03/28 06:31:12;;;;;;;66.72;49.05;;;12.30;64.70;;;;;;4977825;28;89508;-73
2023/03/28 06:33:40;;;;;;;65.05;48.75;;;12.30;64.70;;;;;;4976536;28;89439;-74
2023/03/28 06:36:07;;;;;;;67.72;49.35;;;12.30;65.00;;;;;;4985947;28;89966;-73
2023/03/28 06:38:34;;;;;;;65.25;49.20;;;12.30;64.90;;;;;;4979236;28;89120;-72
2023/03/28 06:40:59;;;;;;;67.25;48.90;;;12.30;65.10;;;;;;4977927;28;90309;-78
2023/03/28 06:43:25;;;;;;;67.03;48.85;;;12.40;65.00;;;;;;4986561;28;88879;-79
2023/03/28 06:45:51;;;;;;;64.45;48.72;;;12.40;65.10;;;;;;4982369;28;88660;-77
2023/03/28 06:48:17;;;;;;;66.07;49.03;;;12.30;64.90;;;;;;4969875;28;88694;-79
2023/03/28 06:50:49;;;;;;;65.93;48.80;;;12.30;64.90;;;;;;4982641;28;88670;-73
2023/03/28 06:53:18;;;;;;;67.40;48.90;;;12.30;64.70;;;;;;4970601;28;88138;-77
2023/03/28 06:55:44;;;;;;;65.72;49.08;;;12.30;64.70;;;;;;4973854;28;91048;-72
2023/03/28 06:58:10;;;;;;;64.40;48.65;;;12.40;64.70;;;;;;4915959;28;91606;-73
2023/03/28 07:00:36;;;;;;;65.53;48.53;;;12.40;64.70;;;;;;4934642;28;89766;-71
2023/03/28 07:03:02;;;;;;;65.97;48.30;;;12.40;64.60;;;;;;4948747;28;91029;-78
2023/03/28 07:05:28;;;;;;;64.00;48.80;;;12.40;64.70;;;;;;4975542;28;88575;-72
2023/03/28 07:07:54;;;;;;;63.45;48.50;;;12.40;64.80;;;;;;4978571;28;89158;-75
2023/03/28 07:10:20;;;;;;;65.30;48.67;;;12.40;64.70;;;;;;4982789;28;88468;-80
2023/03/28 07:12:46;;;;;;;65.38;48.83;;;12.40;64.80;;;;;;4975287;28;90914;-77
2023/03/28 07:15:12;;;;;;;66.22;48.25;;;12.40;64.80;;;;;;4985760;28;88359;-76
2023/03/28 07:17:37;;;;;;;65.97;49.05;;;12.40;64.80;;;;;;4979031;28;89857;-77
2023/03/28 07:20:04;;;;;;;63.72;48.45;;;12.40;64.90;;;;;;4984985;28;89838;-77
2023/03/28 07:22:31;;;;;;;66.03;48.72;;;12.40;65.10;;;;;;4981038;28;90358;-78
2023/03/28 07:24:56;;;;;;;66.68;48.90;;;12.50;65.30;;;;;;4982829;28;88944;-78
2023/03/28 07:27:22;;;;;;;67.32;48.67;;;12.40;65.60;;;;;;4981158;28;88472;-74
2023/03/28 07:29:48;;;;;;;65.13;48.70;;;12.40;66.00;;;;;;4981451;28;88486;-74
2023/03/28 07:32:14;;;;;;;65.47;48.58;;;12.60;65.60;;;;;;4984021;28;88688;-76
2023/03/28 07:34:40;;;;;;;64.68;48.55;;;12.70;65.30;;;;;;4979498;28;89592;-75
2023/03/28 07:37:07;;;;;;;63.88;48.05;;;12.80;64.90;;;;;;4978710;28;89321;-76
2023/03/28 07:39:33;;;;;;;66.93;48.85;;;12.90;64.70;;;;;;4981014;28;89682;-76
2023/03/28 07:41:59;;;;;;;65.88;48.78;;;13.00;64.60;;;;;;4978287;28;88975;-79
2023/03/28 07:44:25;;;;;;;67.43;49.03;;;13.10;64.30;;;;;;4982832;28;90395;-72
2023/03/28 07:46:51;;;;;;;65.32;48.67;;;13.20;63.90;;;;;;4982326;28;89348;-79
2023/03/28 07:49:19;;;;;;;67.53;49.10;;;13.30;63.50;;;;;;4978428;28;88621;-73
2023/03/28 07:51:46;;;;;;;64.90;48.67;;;13.40;63.30;;;;;;4979637;28;88985;-79
2023/03/28 07:54:16;;;;;;;66.40;49.00;;;13.50;63.10;;;;;;4978762;28;89583;-79
2023/03/28 07:56:46;;;;;;;69.10;49.22;;;13.50;63.00;;;;;;4985181;28;88979;-74
2023/03/28 07:59:13;;;;;;;68.13;48.80;;;13.60;62.70;;;;;;4985354;28;89128;-75
2023/03/28 08:01:44;;;;;;;65.93;48.78;;;13.60;62.50;;;;;;4982161;28;89514;-75
2023/03/28 08:04:11;;;;;;;67.23;49.50;;;13.70;62.50;;;;;;4981808;28;89357;-76
2023/03/28 08:06:38;;;;;;;67.75;49.55;;;13.70;62.20;;;;;;4983871;28;89169;-78
2023/03/28 08:09:09;;;;;;;67.40;49.35;;;13.80;61.80;;;;;;4971697;28;92820;-79
2023/03/28 08:11:36;;;;;;;67.30;49.70;;;13.70;62.30;;;;;;4982557;28;89120;-78
2023/03/28 08:14:03;;;;;;;66.97;49.08;;;13.70;62.50;;;;;;4978843;28;89970;-79
2023/03/28 08:16:29;;;;;;;68.38;49.47;;;13.70;62.90;;;;;;4982447;28;89024;-79
2023/03/28 08:18:55;;;;;;;68.65;49.53;;;13.70;62.90;;;;;;4982571;28;88250;-76
2023/03/28 08:21:21;;;;;;;68.35;48.85;;;13.70;62.60;;;;;;4982724;28;89923;-80
2023/03/28 08:23:47;;;;;;;67.75;48.90;;;13.80;62.40;;;;;;4973479;28;94998;-75
2023/03/28 08:26:13;;;;;;;68.18;49.42;;;13.90;61.90;;;;;;4985018;28;88595;-77
2023/03/28 08:28:40;;;;;;;66.25;48.45;;;14.00;61.70;;;;;;4971623;28;89819;-80
2023/03/28 08:31:13;;;;;;;68.43;49.80;;;14.10;61.40;;;;;;4977827;28;88854;-79
2023/03/28 08:33:40;;;;;;;67.75;49.30;;;14.10;61.30;;;;;;4973201;28;90463;-74
2023/03/28 08:36:07;;;;;;;68.63;48.80;;;14.20;61.10;;;;;;4968353;28;89492;-76
2023/03/28 08:38:33;;;;;;;68.03;49.15;;;14.30;60.90;;;;;;4982697;28;89104;-73
2023/03/28 08:41:22;;;;;;;69.22;48.97;;;14.40;60.60;;;;;;4985993;28;89050;-77
2023/03/28 08:43:59;;;;;;;68.43;49.33;;;14.70;60.10;;;;;;4992356;28;91179;-76
2023/03/28 08:46:27;;;;;;;69.03;48.90;;;14.90;59.20;;;;;;4990421;28;89969;-75
2023/03/28 08:48:54;;;;;;;70.55;49.53;;;15.10;58.60;;;;;;4987366;28;89253;-79
2023/03/28 08:51:34;;;;;;;69.35;49.13;;;15.20;58.60;;;;;;4986122;28;88639;-74
2023/03/28 08:54:02;;;;;;;70.25;48.90;;;15.20;58.30;;;;;;4981700;28;89232;-78
2023/03/28 08:56:31;;;;;;;70.22;49.50;;;15.20;58.40;;;;;;4982867;28;89585;-76
2023/03/28 08:58:57;;;;;;;69.35;49.38;;;15.30;58.40;;;;;;4981835;28;90582;-80
2023/03/28 09:01:28;;;;;;;71.90;49.22;;;15.20;58.20;;;;;;4981876;28;89709;-75
2023/03/28 09:03:53;;;;;;;70.33;49.50;;;15.20;58.40;;;;;;4981798;28;89109;-79
2023/03/28 09:06:38;;;;;;;69.53;49.15;;;15.10;58.80;;;;;;4985269;28;89223;-77
2023/03/28 09:09:33;;;;;;;70.45;49.65;;;15.00;59.30;;;;;;5001752;28;89522;-78
2023/03/28 09:12:34;;;;;;;69.90;49.50;;;14.90;59.50;;;;;;4964664;28;89024;-73
2023/03/28 09:15:26;;;;;;;70.28;49.63;;;14.90;59.10;;;;;;4985604;28;91162;-76
2023/03/28 09:18:13;;;;;;;68.78;49.13;;;15.00;59.00;;;;;;4981617;28;89657;-76
2023/03/28 09:20:50;;;;;;;69.63;49.72;;;15.20;58.60;;;;;;4991503;28;89232;-76
2023/03/28 09:23:22;;;;;;;68.70;49.20;;;15.30;58.30;;;;;;4988024;28;89624;-80
2023/03/28 09:25:56;;;;;;;70.07;49.67;;;15.50;58.20;;;;;;4984721;28;89929;-79
2023/03/28 09:28:30;;;;;;;70.35;49.75;;;15.50;57.80;;;;;;4988042;28;89439;-79
2023/03/28 09:30:57;;;;;;;69.63;49.53;;;15.60;57.70;;;;;;4986194;28;89495;-80
2023/03/28 09:33:34;;;;;;;71.57;49.53;;;15.60;57.70;;;;;;4983977;28;89171;-79
2023/03/28 09:36:01;;;;;;;70.85;49.42;;;15.60;57.70;;;;;;4976456;28;89449;-74
2023/03/28 09:38:51;;;;;;;69.60;49.58;;;15.60;57.70;;;;;;4987907;28;90195;-79
2023/03/28 09:41:32;;;;;;;69.05;49.35;;;15.60;57.50;;;;;;4982480;28;90457;-74
2023/03/28 09:44:01;;;;;;;69.22;49.20;;;15.60;57.60;;;;;;4999724;28;91838;-77
2023/03/28 09:46:37;;;;;;;70.20;49.35;;;15.60;57.90;;;;;;4981783;28;90497;-77
2023/03/28 09:49:03;;;;;;;71.88;49.78;;;15.70;57.70;;;;;;4985397;28;89404;-79
2023/03/28 09:51:28;;;;;;;69.65;49.50;;;15.80;57.50;;;;;;4983843;28;91390;-79
2023/03/28 09:53:54;;;;;;;69.88;49.55;;;15.80;57.30;;;;;;4988564;28;90108;-79
2023/03/28 09:56:34;;;;;;;69.45;49.35;;;15.80;57.30;;;;;;4991315;28;90029;-77
2023/03/28 09:59:03;;;;;;;69.43;49.10;;;15.90;57.10;;;;;;4989630;28;89180;-79
2023/03/28 10:01:42;;;;;;;69.80;49.53;;;16.00;57.00;;;;;;4989058;28;89072;-77
2023/03/28 10:04:31;;;;;;;70.75;49.65;;;16.00;57.00;;;;;;4988512;28;89336;-76
2023/03/28 10:07:09;;;;;;;70.30;49.72;;;15.90;57.30;;;;;;4987208;28;90677;-78
2023/03/28 10:09:47;;;;;;;70.55;49.80;;;16.00;57.20;;;;;;4987711;28;88614;-76
2023/03/28 10:12:19;;;;;;;72.75;49.83;;;16.00;57.00;;;;;;4995966;28;89029;-79
2023/03/28 10:14:48;;;;;;;74.07;49.75;;;16.10;57.00;;;;;;4996195;28;88873;-74
2023/03/28 10:17:28;;;;;;;72.80;49.83;;;16.10;57.00;;;;;;5005882;28;90050;-77
2023/03/28 10:20:02;;;;;;;70.90;49.83;;;16.10;57.00;;;;;;4989768;28;90063;-80
2023/03/28 10:22:32;;;;;;;71.38;50.03;;;16.20;57.00;;;;;;4989014;28;88721;-77
2023/03/28 10:24:58;;;;;;;71.15;49.72;;;16.20;56.90;;;;;;4993981;28;88950;-75
2023/03/28 10:27:30;;;;;;;70.80;49.80;;;16.20;56.80;;;;;;4991444;28;90344;-80
2023/03/28 10:30:06;;;;;;;72.78;49.72;;;16.30;56.70;;;;;;4991381;28;89035;-78
2023/03/28 10:32:31;;;;;;;71.85;49.75;;;16.30;56.80;;;;;;4984840;28;89279;-79
2023/03/28 10:35:14;;;;;;;72.03;49.65;;;16.20;56.60;;;;;;4987788;28;88954;-75
2023/03/28 10:37:41;;;;;;;71.15;49.58;;;16.10;57.00;;;;;;4982900;28;89343;-77
2023/03/28 10:40:16;;;;;;;72.28;49.83;;;16.10;57.10;;;;;;4977447;28;89397;-79
2023/03/28 10:42:44;;;;;;;71.65;49.88;;;16.20;57.20;;;;;;4980368;28;90414;-78
2023/03/28 10:45:33;;;;;;;70.70;49.78;;;16.40;57.00;;;;;;4990596;28;89350;-74
2023/03/28 10:48:27;;;;;;;72.40;49.80;;;16.40;56.90;;;;;;4968787;28;91373;-79
2023/03/28 10:50:54;;;;;;;70.95;49.92;;;16.40;56.90;;;;;;4972969;28;91483;-77
2023/03/28 10:53:59;;;;;;;71.70;49.95;;;16.40;57.10;;;;;;4975008;28;89453;-73
2023/03/28 10:56:32;;;;;;;73.60;49.40;;;16.40;57.30;;;;;;4979952;28;89667;-78
2023/03/28 10:59:21;;;;;;;74.45;49.78;;;16.40;57.10;;;;;;4984001;28;89410;-78
2023/03/28 11:02:05;;;;;;;73.88;49.63;;;16.50;57.20;;;;;;4983550;28;88392;-79
2023/03/28 11:04:37;;;;;;;72.32;49.75;;;16.50;57.10;;;;;;4983522;28;89883;-77
2023/03/28 11:07:14;;;;;;;;;;;16.60;57.10;;;;;;4976517;28;89611;-79
2023/03/28 11:10:03;;;;;;;73.32;50.15;;;16.60;57.10;;;;;;4980005;28;90544;-76
2023/03/28 11:12:40;;;;;;;72.18;49.72;;;16.60;57.00;;;;;;4979356;28;89733;-80
2023/03/28 11:15:20;;;;;;;73.28;50.17;;;16.70;57.10;;;;;;4988355;28;90539;-81
2023/03/28 11:18:11;;;;;;;72.05;49.97;;;16.80;57.00;;;;;;4981688;28;90639;-77
2023/03/28 11:20:45;;;;;;;71.63;49.87;;;16.80;57.00;;;;;;4981633;28;89360;-78
2023/03/28 11:23:27;;;;;;;72.18;49.85;;;16.80;56.80;;;;;;4977274;28;89893;-79
2023/03/28 11:26:29;;;;;;;72.00;50.05;;;16.80;57.00;;;;;;4980396;28;89310;-78
2023/03/28 11:29:20;;;;;;;72.90;49.53;;;16.80;57.10;;;;;;4979077;28;88789;-80
2023/03/28 11:31:52;;;;;;;;;;;16.80;56.90;;;;;;4977412;28;89481;-78
2023/03/28 11:34:30;;;;;;;72.53;49.85;;;16.80;57.00;;;;;;4978461;28;89850;-76
2023/03/28 11:37:09;;;;;;;71.78;49.72;;;16.80;57.00;;;;;;4978220;28;90707;-81
2023/03/28 11:39:41;;;;;;;72.45;49.92;;;16.70;57.20;;;;;;4978980;28;89834;-76
2023/03/28 11:42:14;;;;;;;72.22;50.05;;;16.70;57.30;;;;;;4980558;28;90303;-79
2023/03/28 11:44:47;;;;;;;73.72;49.95;;;16.60;57.30;;;;;;4981132;28;90040;-76
2023/03/28 11:47:22;;;;;;;71.78;50.05;;;16.60;57.30;;;;;;4978627;28;90737;-78
2023/03/28 11:50:06;;;;;;;72.78;50.13;;;16.60;57.20;;;;;;4979745;28;89476;-75
2023/03/28 11:52:39;;;;;;;73.18;50.05;;;16.60;57.20;;;;;;4974375;28;89133;-78
2023/03/28 11:55:19;;;;;;;73.05;50.20;;;16.60;58.10;;;;;;4976298;28;88862;-80
2023/03/28 11:58:09;;;;;;;73.65;50.08;;;16.60;57.70;;;;;;4980284;28;89774;-79
2023/03/28 12:00:42;;;;;;;72.25;49.63;;;16.50;57.70;;;;;;4980198;28;90476;-79
2023/03/28 12:03:30;;;;;;;72.38;50.08;;;16.60;57.60;;;;;;4980180;28;90201;-77
2023/03/28 12:06:31;;;;;;;73.78;50.05;;;16.60;57.60;;;;;;4980913;28;89511;-79
2023/03/28 12:09:23;;;;;;;72.60;49.80;;;16.60;57.50;;;;;;4974939;28;90159;-78
2023/03/28 12:11:59;;;;;;;71.70;50.03;;;16.60;57.60;;;;;;4978641;28;89469;-78
2023/03/28 12:14:36;;;;;;;72.75;49.95;;;16.70;58.10;;;;;;4976456;28;89310;-79
2023/03/28 12:17:22;;;;;;;72.50;49.72;;;16.70;57.50;;;;;;4993181;28;90047;-81
2023/03/28 12:19:48;;;;;;;73.03;49.85;;;16.70;57.60;;;;;;4972505;28;89458;-77
2023/03/28 12:22:25;;;;;;;74.03;49.78;;;16.70;57.60;;;;;;4978524;28;88774;-77
2023/03/28 12:25:12;;;;;;;73.18;50.15;;;16.70;57.50;;;;;;4979141;28;90894;-77
2023/03/28 12:27:41;;;;;;;72.32;49.88;;;16.60;57.60;;;;;;4979401;28;90379;-79
2023/03/28 12:30:24;;;;;;;74.47;49.72;;;16.60;57.70;;;;;;4981036;28;90875;-73
2023/03/28 12:33:17;;;;;;;71.57;49.78;;;16.60;57.80;;;;;;4976874;28;90180;-78
2023/03/28 12:36:25;;;;;;;72.80;50.35;;;16.60;57.80;;;;;;4976873;28;89643;-75
2023/03/28 12:39:03;;;;;;;71.78;49.97;;;16.60;57.70;;;;;;4971685;28;89977;-81
2023/03/28 12:41:35;;;;;;;72.35;49.92;;;16.60;57.80;;;;;;4975863;28;89494;-79
2023/03/28 12:44:15;;;;;;;;;;;16.60;57.70;;;;;;4979557;28;89567;-77
2023/03/28 12:46:55;;;;;;;72.53;49.90;;;16.50;57.90;;;;;;4979228;28;88867;-74
2023/03/28 12:49:38;;;;;;;72.53;50.00;;;16.50;57.90;;;;;;4981116;28;89894;-77
2023/03/28 12:52:06;;;;;;;73.22;49.92;;;16.60;57.70;;;;;;4978455;28;89432;-73